Terminal Aerodrome Forecast
Issued by NWS Tulsa, OK

Home | Current Version | Previous Version | Text Only | Print | Product List | Glossary On
Versions: 1 2 3 4 5 6 7 8 9 10 11 12 13 14
571
FTUS44 KTSA 101120
TAFFSM
TAF
KFSM 101120Z 1012/1112 07006KT P6SM OVC050
     FM101500 13009KT P6SM BKN060
     FM110000 08008KT P6SM BKN250
     FM110600 08008KT P6SM SCT025 BKN250 WS020/22045KT
     FM110900 12012KT P6SM BKN025 WS020/22045KT=

USA.gov is the U.S. government's official web portal to all federal, state and local government web resources and services.